Time;durP1;ratioP1;P1;durP2;ratioP2;P2;SDS_P1;SDS_P2;PMS_P1;PMS_P2;Temp;Humidity;BMP_temperature;BMP_pressure;BME280_temperature;BME280_humidity;BME280_pressure;Samples;Min_cycle;Max_cycle;Signal;HPM_P1;HPM_P2
2021/11/10 00:02:34;;;;;;;13.80;8.82;;;;;;;22.36;48.34;101671.63;7383997;19;20035;-48
2021/11/10 00:05:24;;;;;;;13.18;9.65;;;;;;;22.39;48.63;101674.09;7381690;19;20029;-50
2021/11/10 00:08:12;;;;;;;11.05;8.82;;;;;;;22.40;48.66;101665.13;7390356;19;20589;-47
2021/11/10 00:11:00;;;;;;;11.55;8.82;;;;;;;22.41;48.90;101665.97;7388951;19;20049;-52
2021/11/10 00:13:48;;;;;;;13.52;9.18;;;;;;;22.43;48.63;101651.56;7390358;19;20021;-52
2021/11/10 00:16:35;;;;;;;13.57;9.63;;;;;;;22.47;48.65;101652.22;7387973;19;20040;-47
2021/11/10 00:19:23;;;;;;;14.02;10.00;;;;;;;22.48;48.67;101637.88;7390610;19;20035;-47
2021/11/10 00:22:13;;;;;;;11.30;9.02;;;;;;;22.51;48.37;101629.69;7390554;19;20034;-47
2021/11/10 00:25:01;;;;;;;13.35;8.90;;;;;;;22.53;48.34;101627.78;7389425;19;20102;-48
2021/11/10 00:27:49;;;;;;;12.15;8.57;;;;;;;22.53;48.00;101625.09;7390614;19;20053;-52
2021/11/10 00:30:37;;;;;;;13.95;9.48;;;;;;;22.53;48.47;101625.09;7388694;19;20047;-49
2021/11/10 00:33:24;;;;;;;11.65;9.05;;;;;;;22.53;48.43;101627.78;7390513;19;20026;-50
2021/11/10 00:36:12;;;;;;;12.88;9.75;;;;;;;22.53;47.91;101627.78;7387278;19;20082;-49
2021/11/10 00:39:02;;;;;;;13.75;8.85;;;;;;;22.54;47.95;101631.31;7390179;19;20022;-48
2021/11/10 00:41:50;;;;;;;10.65;8.93;;;;;;;22.53;48.15;101627.78;7387181;19;20029;-49
2021/11/10 00:44:38;;;;;;;12.13;8.93;;;;;;;22.54;47.74;101634.81;7389493;19;20388;-47
2021/11/10 00:47:25;;;;;;;12.20;8.85;;;;;;;22.54;48.09;101640.16;7388887;19;20017;-48
2021/11/10 00:50:14;;;;;;;11.93;8.95;;;;;;;22.54;47.88;101634.81;7387974;19;20061;-49
2021/11/10 00:53:03;;;;;;;14.05;9.45;;;;;;;22.55;47.61;101641.03;7389092;19;20021;-49
2021/11/10 00:55:53;;;;;;;12.70;8.77;;;;;;;22.56;47.72;101642.75;7387614;19;20025;-47
2021/11/10 00:58:41;;;;;;;13.23;9.10;;;;;;;22.57;47.59;101650.66;7388509;19;20503;-48
2021/11/10 01:01:28;;;;;;;10.68;8.40;;;;;;;22.57;47.93;101661.34;7386686;19;20025;-50
2021/11/10 01:04:16;;;;;;;10.90;8.57;;;;;;;22.57;47.65;101665.84;7388648;19;20560;-48
2021/11/10 01:07:05;;;;;;;12.25;8.75;;;;;;;22.59;47.74;101664.78;7385610;19;20055;-48
2021/11/10 01:09:55;;;;;;;11.02;8.68;;;;;;;22.60;47.62;101655.78;7388083;19;20026;-50
2021/11/10 01:12:45;;;;;;;12.65;9.52;;;;;;;22.62;47.51;101645.84;7388581;19;20047;-49
2021/11/10 01:15:34;;;;;;;13.25;8.85;;;;;;;22.66;48.03;101652.69;7387164;19;20037;-48
2021/11/10 01:18:21;;;;;;;10.95;8.60;;;;;;;22.67;47.41;101648.22;7384910;19;20408;-50
2021/11/10 01:21:09;;;;;;;12.63;8.90;;;;;;;22.67;47.59;101657.09;7386276;19;20041;-50
2021/11/10 01:23:56;;;;;;;10.80;8.32;;;;;;;22.69;47.68;101665.84;7388169;19;20050;-48
2021/11/10 01:26:44;;;;;;;12.43;9.20;;;;;;;22.70;47.89;101664.06;7385876;19;20500;-49
2021/11/10 01:29:34;;;;;;;11.75;8.88;;;;;;;22.71;47.74;101655.94;7388654;19;20035;-47
2021/11/10 01:32:21;;;;;;;11.37;8.60;;;;;;;22.72;47.86;101662.16;7386980;19;20550;-48
2021/11/10 01:35:10;;;;;;;14.63;9.02;;;;;;;22.74;47.37;101660.22;7386943;19;20029;-47
2021/11/10 01:37:58;;;;;;;11.10;8.60;;;;;;;22.75;47.12;101657.44;7388076;19;20021;-47
2021/11/10 01:40:46;;;;;;;11.48;8.85;;;;;;;22.75;47.74;101656.59;7388305;19;20510;-48
2021/11/10 01:43:34;;;;;;;11.85;8.52;;;;;;;22.75;47.43;101654.78;7389997;19;20099;-47
2021/11/10 01:46:25;;;;;;;13.15;10.38;;;;;;;22.74;47.58;101647.72;7387934;19;20367;-47
2021/11/10 01:49:13;;;;;;;13.20;9.13;;;;;;;22.74;47.16;101647.72;7389885;19;20030;-47
2021/11/10 01:52:02;;;;;;;13.10;8.75;;;;;;;22.74;47.25;101653.06;7387457;19;20026;-46
2021/11/10 01:54:49;;;;;;;11.10;9.23;;;;;;;22.73;47.11;101643.34;7389245;19;20108;-46
2021/11/10 01:57:37;;;;;;;12.52;9.05;;;;;;;22.73;46.97;101634.47;7388719;19;20049;-47
2021/11/10 02:00:28;;;;;;;14.05;9.52;;;;;;;22.72;47.51;101636.28;7388832;19;20490;-47
2021/11/10 02:03:19;;;;;;;12.20;9.13;;;;;;;22.71;47.19;101628.38;7390129;19;20057;-47
2021/11/10 02:06:06;;;;;;;13.45;9.13;;;;;;;22.69;47.46;101622.22;7387902;19;20494;-47
2021/11/10 02:08:54;;;;;;;11.98;9.20;;;;;;;22.69;47.24;101620.41;7389255;19;20404;-48
2021/11/10 02:11:41;;;;;;;11.50;8.98;;;;;;;22.68;46.87;101613.34;7386900;19;20207;-48
2021/11/10 02:14:30;;;;;;;13.68;9.80;;;;;;;22.68;47.51;101612.50;7389170;19;20453;-47
2021/11/10 02:17:20;;;;;;;11.45;9.20;;;;;;;22.66;47.16;101617.94;7387671;19;20044;-48
2021/11/10 02:20:12;;;;;;;12.38;9.88;;;;;;;22.64;47.64;101614.53;7388796;19;20393;-48
2021/11/10 02:23:05;;;;;;;12.73;9.68;;;;;;;22.65;47.54;101610.03;7388740;19;20502;-48
2021/11/10 02:25:58;;;;;;;13.90;9.02;;;;;;;22.63;47.41;101604.81;7376318;19;20493;-46
2021/11/10 02:28:45;;;;;;;12.30;9.20;;;;;;;22.64;47.40;101598.50;7386899;19;20535;-46
2021/11/10 02:31:36;;;;;;;13.02;8.75;;;;;;;22.64;46.98;101590.47;7384734;19;20028;-45
2021/11/10 02:34:23;;;;;;;12.73;8.80;;;;;;;22.61;47.39;101582.66;7388371;19;20153;-44
2021/11/10 02:39:53;;;;;;;12.20;9.27;;;;;;;22.59;47.44;101573.91;7375908;19;20739;-61
2021/11/10 02:45:16;;;;;;;13.38;9.30;;;;;;;22.59;46.99;101578.38;7362595;19;20249;-43
2021/11/10 02:48:03;;;;;;;13.02;9.05;;;;;;;22.59;47.01;101587.25;7387194;19;20371;-44
2021/11/10 02:50:52;;;;;;;12.02;8.93;;;;;;;22.58;47.27;101585.56;7388191;19;20037;-43
2021/11/10 02:53:40;;;;;;;12.00;9.38;;;;;;;22.57;47.14;101588.31;7387551;19;20022;-43
2021/11/10 02:56:30;;;;;;;12.85;9.55;;;;;;;22.56;46.64;101574.13;7388226;19;20034;-43
2021/11/10 02:59:17;;;;;;;12.38;8.95;;;;;;;22.58;46.66;101587.38;7386783;19;20038;-44
2021/11/10 03:02:06;;;;;;;12.43;9.02;;;;;;;22.56;46.62;101587.47;7387323;19;20033;-44
2021/11/10 03:04:53;;;;;;;11.38;8.20;;;;;;;22.56;46.72;101589.28;7385452;19;20056;-44
2021/11/10 03:07:40;;;;;;;11.13;8.70;;;;;;;22.57;46.59;101586.50;7387074;19;20095;-42
2021/11/10 03:10:28;;;;;;;13.52;9.10;;;;;;;22.56;46.47;101587.47;7371886;19;20043;-45
2021/11/10 03:13:18;;;;;;;12.25;8.75;;;;;;;22.57;46.45;101577.63;7386893;19;20021;-46
2021/11/10 03:16:06;;;;;;;13.45;8.73;;;;;;;22.58;46.70;101577.53;7387187;19;20056;-44
2021/11/10 03:18:54;;;;;;;11.63;8.85;;;;;;;22.58;46.76;101577.53;7384970;19;20647;-45
2021/11/10 03:21:42;;;;;;;12.05;8.40;;;;;;;22.59;46.53;101584.59;7386779;19;20022;-46
2021/11/10 03:24:29;;;;;;;14.57;9.35;;;;;;;22.61;46.88;101577.31;7385465;19;20033;-44
2021/11/10 03:27:17;;;;;;;13.73;9.30;;;;;;;22.60;46.88;101583.63;7387152;19;20022;-45
2021/11/10 03:30:08;;;;;;;11.50;8.18;;;;;;;22.60;46.61;101583.63;7385810;19;20029;-47
2021/11/10 03:32:56;;;;;;;12.43;8.18;;;;;;;22.61;46.96;101585.34;7387175;19;20052;-49
2021/11/10 03:35:43;;;;;;;12.68;8.73;;;;;;;22.59;46.81;101581.91;7383105;19;20333;-48
2021/11/10 03:38:31;;;;;;;11.98;8.95;;;;;;;22.60;47.05;101580.97;7384194;19;20103;-45
2021/11/10 03:41:19;;;;;;;13.60;9.45;;;;;;;22.61;46.93;101573.78;7388602;19;20052;-43
2021/11/10 03:44:10;;;;;;;15.73;9.02;;;;;;;22.59;46.84;101579.25;7348062;19;20025;-44
2021/11/10 03:47:00;;;;;;;14.15;8.80;;;;;;;22.57;46.96;101574.97;7393864;19;20038;-44
2021/11/10 03:52:23;;;;;;;12.73;8.40;;;;;;;22.55;46.95;101572.41;7357102;19;20039;-58
2021/11/10 03:55:12;;;;;;;11.70;8.82;;;;;;;22.51;47.17;101571.75;7394575;19;20025;-58
2021/11/10 04:00:33;;;;;;;12.75;8.70;;;;;;;22.50;47.01;101563.84;7390233;19;20029;-58
2021/11/10 04:03:23;;;;;;;11.98;8.88;;;;;;;22.48;47.31;101553.22;7391910;19;20034;-55
2021/11/10 04:06:11;;;;;;;11.25;8.52;;;;;;;22.48;47.38;101549.69;7393562;19;20048;-56
2021/11/10 04:08:59;;;;;;;11.60;8.48;;;;;;;22.50;47.06;101553.16;7391220;19;20431;-57
2021/11/10 04:11:47;;;;;;;12.90;9.10;;;;;;;22.50;47.16;101553.16;7392731;19;20549;-58
2021/11/10 04:14:34;;;;;;;14.48;8.65;;;;;;;22.50;47.12;101553.16;7389917;19;20025;-55
2021/11/10 04:17:22;;;;;;;12.27;9.13;;;;;;;22.49;47.42;101549.63;7392360;19;20873;-57
2021/11/10 04:20:13;;;;;;;10.85;8.18;;;;;;;22.47;47.45;101539.97;7391978;19;20121;-59
2021/11/10 04:25:35;;;;;;;11.85;9.02;;;;;;;22.49;47.64;101524.72;7352594;19;20239;-43
2021/11/10 04:28:23;;;;;;;17.30;8.65;;;;;;;22.51;47.31;101522.81;7391956;19;20497;-43
2021/11/10 04:31:10;;;;;;;11.82;8.90;;;;;;;22.54;47.63;101517.25;7389937;19;20026;-43
2021/11/10 04:33:58;;;;;;;12.45;9.07;;;;;;;22.56;47.15;101515.31;7392594;19;20026;-53
2021/11/10 04:36:48;;;;;;;12.40;8.82;;;;;;;22.54;47.41;101511.91;7391036;19;20026;-52
2021/11/10 04:39:36;;;;;;;11.10;7.77;;;;;;;22.55;47.15;101508.25;7390112;19;20106;-51
2021/11/10 04:42:24;;;;;;;12.15;9.13;;;;;;;22.52;47.47;101498.63;7390987;19;20251;-53
2021/11/10 04:45:17;;;;;;;13.30;8.38;;;;;;;22.52;47.66;101503.97;7389925;19;20473;-52
2021/11/10 04:50:43;;;;;;;12.20;8.70;;;;;;;22.49;47.10;101501.53;7383211;19;20022;-61
2021/11/10 04:53:33;;;;;;;12.33;8.93;;;;;;;22.46;47.40;101495.50;7373890;19;20489;-48
2021/11/10 04:56:21;;;;;;;13.40;8.32;;;;;;;22.45;47.75;101496.47;7391288;19;20038;-50
2021/11/10 04:59:09;;;;;;;13.57;8.20;;;;;;;22.45;47.42;101489.31;7377250;19;20122;-46
2021/11/10 05:02:23;;;;;;;10.18;8.18;;;;;;;22.42;47.27;101488.66;7391190;19;20372;-45
2021/11/10 05:05:11;;;;;;;10.50;7.80;;;;;;;22.39;47.62;101486.22;7387841;19;20391;-46
2021/11/10 05:13:20;;;;;;;11.80;7.93;;;;;;;22.36;47.59;101470.41;7373836;19;20014;-44
2021/11/10 05:19:06;;;;;;;13.30;8.18;;;;;;;22.35;47.59;101463.34;7375061;19;20658;-60
2021/11/10 05:21:53;;;;;;;11.00;7.68;;;;;;;22.34;47.42;101472.31;7390883;19;20022;-45
2021/11/10 05:24:41;;;;;;;11.90;7.82;;;;;;;22.33;47.08;101475.94;7389752;19;20029;-44
2021/11/10 05:27:28;;;;;;;9.90;7.80;;;;;;;22.32;47.70;101476.91;7389687;19;20029;-45
2021/11/10 05:30:19;;;;;;;10.35;8.18;;;;;;;22.32;47.92;101471.56;7372160;19;20050;-50
2021/11/10 05:35:41;;;;;;;11.70;8.68;;;;;;;22.37;47.32;101488.13;7381716;19;20383;-45
2021/11/10 05:38:29;;;;;;;11.10;7.88;;;;;;;22.42;47.30;101483.31;7389535;19;20047;-45
2021/11/10 05:43:53;;;;;;;13.57;8.95;;;;;;;22.51;47.05;101504.09;7343365;19;20014;-49
2021/11/10 05:46:44;;;;;;;11.00;8.05;;;;;;;22.54;46.65;101495.88;7390252;19;20442;-50
2021/11/10 05:52:08;;;;;;;12.35;9.27;;;;;;;22.60;46.76;101497.25;7384701;19;20472;-43
2021/11/10 05:54:56;;;;;;;11.05;8.02;;;;;;;22.64;46.87;101501.41;7389180;19;20056;-45
2021/11/10 06:00:19;;;;;;;11.27;8.02;;;;;;;22.66;46.71;101494.13;7363703;19;20021;-43
2021/11/10 06:05:44;;;;;;;10.38;8.13;;;;;;;22.71;46.38;101487.53;7350615;19;20044;-45
2021/11/10 06:08:36;;;;;;;11.80;8.38;;;;;;;22.72;46.48;101486.56;7387213;19;20048;-43
2021/11/10 06:11:24;;;;;;;10.30;7.72;;;;;;;22.73;46.32;101498.97;7376468;19;20104;-47
2021/11/10 06:14:14;;;;;;;;;;;;;;;22.73;46.92;101490.97;7346503;19;20018;-58
2021/11/10 06:17:04;;;;;;;13.18;8.48;;;;;;;22.75;46.46;101490.84;7388725;19;19929;-60
2021/11/10 06:19:52;;;;;;;15.45;9.13;;;;;;;22.74;46.34;101490.00;7385043;19;20013;-60
2021/11/10 06:25:11;;;;;;;14.32;9.07;;;;;;;22.71;45.99;101495.56;7386890;19;20482;-52
2021/11/10 06:27:59;;;;;;;12.85;8.60;;;;;;;22.72;45.88;101510.63;7387221;19;20026;-49
2021/11/10 06:30:46;;;;;;;11.00;8.77;;;;;;;22.71;45.82;101502.72;7386659;19;20025;-49
2021/11/10 06:33:35;;;;;;;13.15;8.90;;;;;;;22.73;46.11;101506.13;7372232;19;20469;-45
2021/11/10 06:36:23;;;;;;;11.80;7.97;;;;;;;22.73;45.49;101511.50;7388911;19;20020;-46
2021/11/10 06:39:11;;;;;;;12.02;8.00;;;;;;;22.74;45.73;101492.66;7385769;19;20029;-48
2021/11/10 06:42:01;;;;;;;13.43;8.88;;;;;;;22.74;45.49;101508.72;7370181;19;20022;-55
2021/11/10 06:44:48;;;;;;;12.90;8.20;;;;;;;22.73;45.75;101506.13;7387098;19;20110;-54
2021/11/10 06:47:36;;;;;;;12.55;8.93;;;;;;;22.72;45.74;101502.63;7386113;19;20029;-51
2021/11/10 06:50:24;;;;;;;19.38;9.35;;;;;;;22.73;45.69;101507.00;7385846;19;20052;-52
2021/11/10 06:53:12;;;;;;;11.57;8.00;;;;;;;22.74;45.25;101506.03;7356012;19;20048;-45
2021/11/10 06:55:59;;;;;;;12.50;8.77;;;;;;;22.75;45.13;101521.09;7387732;19;20017;-44
2021/11/10 06:58:50;;;;;;;10.88;8.43;;;;;;;22.77;45.07;101529.03;7373804;19;20442;-45
2021/11/10 07:01:37;;;;;;;12.05;9.05;;;;;;;22.77;45.34;101524.53;7384486;19;20368;-46
2021/11/10 07:04:25;;;;;;;12.43;8.75;;;;;;;22.80;45.17;101523.47;7384631;19;20475;-47
2021/11/10 07:12:20;;;;;;;13.45;9.05;;;;;;;22.85;45.20;101509.78;7384705;19;20015;-48
2021/11/10 07:15:11;;;;;;;11.80;8.90;;;;;;;22.87;45.24;101513.22;7385257;19;20021;-46
2021/11/10 07:17:58;;;;;;;13.60;9.07;;;;;;;22.88;45.15;101505.09;7392172;19;20021;-47
2021/11/10 07:32:23;;;;;;;13.80;9.93;;;;;;;22.93;44.83;101507.47;7378529;19;20022;-54
2021/11/10 07:35:13;;;;;;;13.20;8.52;;;;;;;22.92;44.33;101506.59;7391111;19;20041;-50
2021/11/10 07:38:00;;;;;;;15.00;8.98;;;;;;;22.93;44.78;101518.16;7393627;19;20056;-52
2021/11/10 07:40:48;;;;;;;13.82;9.88;;;;;;;22.93;44.83;101507.47;7380794;19;20471;-53
2021/11/10 07:43:36;;;;;;;11.98;8.48;;;;;;;22.94;44.69;101509.16;7394090;19;20022;-52
2021/11/10 07:46:26;;;;;;;14.55;9.40;;;;;;;22.95;44.79;101510.88;7393820;19;20144;-46
2021/11/10 07:49:20;;;;;;;12.65;8.45;;;;;;;22.95;44.67;101505.53;7391880;19;20128;-44
2021/11/10 07:52:08;;;;;;;14.15;8.98;;;;;;;22.96;44.74;101507.25;7393384;19;20026;-47
2021/11/10 07:54:56;;;;;;;13.18;8.68;;;;;;;22.96;44.23;101496.53;7390436;19;20048;-47
2021/11/10 07:57:44;;;;;;;11.57;9.30;;;;;;;22.98;44.19;101499.97;7393051;19;20359;-44
2021/11/10 08:00:32;;;;;;;10.70;9.35;;;;;;;22.98;44.18;101494.63;7390343;19;20029;-46
2021/11/10 08:08:43;;;;;;;11.02;8.60;;;;;;;23.00;44.29;101498.03;7329580;19;20010;-53
2021/11/10 08:11:34;;;;;;;13.30;8.88;;;;;;;23.01;44.25;101489.03;7392374;19;20018;-55
2021/11/10 08:14:22;;;;;;;11.02;8.35;;;;;;;22.99;44.34;101482.94;7389323;19;20048;-62
2021/11/10 08:17:09;;;;;;;11.65;8.70;;;;;;;23.04;44.39;101488.81;7388579;19;20032;-61
2021/11/10 08:19:58;;;;;;;12.13;8.48;;;;;;;23.07;44.27;101494.81;7389028;19;20026;-63
2021/11/10 08:22:47;;;;;;;13.38;9.10;;;;;;;23.10;44.45;101483.03;7385406;19;20034;-63
2021/11/10 08:25:35;;;;;;;12.90;8.40;;;;;;;23.13;44.00;101488.19;7384319;19;20048;-61
2021/11/10 08:57:02;;;;;;;18.27;9.57;;;;;;;22.40;43.70;101458.53;7381833;19;20037;-57
2021/11/10 08:59:50;;;;;;;15.35;10.98;;;;;;;22.31;43.26;101465.38;7384133;19;20026;-58
2021/11/10 09:02:41;;;;;;;19.83;10.73;;;;;;;22.25;43.19;101463.09;7386780;19;20062;-56
2021/11/10 09:05:30;;;;;;;20.95;11.00;;;;;;;22.14;44.04;101463.84;7382933;19;20021;-57
2021/11/10 09:08:18;;;;;;;17.65;10.93;;;;;;;22.01;43.96;101454.91;7384661;19;20033;-52
2021/11/10 09:11:06;;;;;;;15.75;11.00;;;;;;;21.89;44.27;101448.59;7385777;19;20613;-57
2021/11/10 09:13:56;;;;;;;16.17;10.98;;;;;;;21.75;44.39;101445.13;7384450;19;20025;-55
2021/11/10 09:16:44;;;;;;;16.25;10.88;;;;;;;21.68;44.36;101450.00;7384995;19;20026;-54
2021/11/10 09:19:32;;;;;;;21.38;13.75;;;;;;;21.35;42.59;101447.72;7383379;19;20030;-60
2021/11/10 09:22:20;;;;;;;20.10;12.18;;;;;;;20.96;42.98;101451.06;7383950;19;20051;-59
2021/11/10 09:25:09;;;;;;;23.40;13.50;;;;;;;20.63;42.94;101448.69;7383257;19;20987;-61
2021/11/10 09:28:00;;;;;;;19.25;13.40;;;;;;;20.35;43.08;101445.00;7385384;19;20379;-61
2021/11/10 09:30:54;;;;;;;22.02;12.60;;;;;;;20.06;42.69;101435.22;7384842;19;20536;-61
2021/11/10 11:13:06;;;;;;;11.63;8.73;;;;;;;21.25;44.84;101337.25;7374779;19;20018;-62
2021/11/10 11:16:07;;;;;;;11.85;9.00;;;;;;;21.34;45.20;101328.63;7381763;19;20033;-59
2021/11/10 11:19:12;;;;;;;16.95;10.00;;;;;;;21.41;45.04;101321.94;7380795;19;20029;-60
2021/11/10 11:22:00;;;;;;;15.70;9.82;;;;;;;21.47;48.00;101316.22;7381510;19;20022;-59
2021/11/10 11:24:49;;;;;;;16.10;10.55;;;;;;;21.54;49.16;101317.50;7379632;19;20561;-55
2021/11/10 11:27:37;;;;;;;17.13;10.88;;;;;;;21.61;51.58;101313.44;7380799;19;20379;-58
2021/11/10 11:30:29;;;;;;;17.98;11.93;;;;;;;21.69;52.39;101307.59;7379160;19;20534;-62
2021/11/10 11:33:21;;;;;;;16.33;11.60;;;;;;;21.70;52.69;101298.63;7380434;19;20047;-59
2021/11/10 11:36:10;;;;;;;15.48;11.68;;;;;;;21.75;53.93;101288.50;7380675;19;20458;-59
2021/11/10 11:38:59;;;;;;;20.17;12.38;;;;;;;21.79;54.59;101283.78;7379767;19;20021;-60
2021/11/10 11:41:47;;;;;;;17.15;12.52;;;;;;;21.83;55.70;101279.94;7380643;19;20029;-57
2021/11/10 11:44:38;;;;;;;17.75;12.35;;;;;;;21.84;56.40;101273.66;7380050;19;20510;-57
2021/11/10 11:47:30;;;;;;;20.13;12.27;;;;;;;21.83;56.48;101263.94;7380494;19;20025;-57
2021/11/10 11:50:18;;;;;;;19.63;12.63;;;;;;;21.83;56.38;101258.59;7378651;19;20106;-59
2021/11/10 11:53:07;;;;;;;17.02;11.98;;;;;;;21.91;55.94;101250.94;7380028;19;20029;-60
2021/11/10 12:09:20;;;;;;;18.30;10.93;;;;;;;21.90;54.12;101233.19;7383639;19;20489;-61
2021/11/10 12:12:12;;;;;;;19.48;10.65;;;;;;;21.85;53.04;101222.81;7387794;19;20025;-62
2021/11/10 12:15:01;;;;;;;17.20;9.80;;;;;;;21.81;52.76;101216.00;7385274;19;20029;-61
2021/11/10 12:18:06;;;;;;;16.17;9.63;;;;;;;21.78;53.41;101221.56;7387560;19;20033;-60
2021/11/10 12:21:01;;;;;;;17.23;11.15;;;;;;;21.81;52.80;101229.34;7384364;19;20111;-61
2021/11/10 12:24:21;;;;;;;16.38;9.77;;;;;;;21.78;52.71;101231.38;7386352;19;20033;-60
2021/11/10 12:27:37;;;;;;;12.93;9.15;;;;;;;21.85;52.53;101229.97;7384975;19;20025;-60
2021/11/10 12:30:27;;;;;;;14.88;10.18;;;;;;;21.94;51.24;101224.00;7384306;19;20021;-58
2021/11/10 12:33:15;;;;;;;56.90;18.13;;;;;;;22.04;52.41;101227.75;7386186;19;20025;-58
2021/11/10 12:36:03;;;;;;;70.00;25.63;;;;;;;22.16;52.37;101213.53;7386373;19;20059;-59
2021/11/10 12:38:52;;;;;;;54.33;27.58;;;;;;;22.25;52.17;101206.69;7385500;19;20022;-60
2021/11/10 12:41:49;;;;;;;37.23;21.07;;;;;;;22.18;51.58;101203.59;7387330;19;20062;-60
2021/11/10 12:44:47;;;;;;;48.85;19.02;;;;;;;22.15;51.71;101211.00;7384478;19;20026;-59
2021/11/10 12:47:46;;;;;;;43.05;18.23;;;;;;;22.07;50.69;101199.97;7385419;19;20372;-60
2021/11/10 12:50:38;;;;;;;31.85;17.38;;;;;;;22.00;51.15;101191.53;7383827;19;20033;-60
2021/11/10 12:53:39;;;;;;;34.75;16.75;;;;;;;22.15;50.84;101189.63;7385791;19;20118;-60
2021/11/10 12:56:52;;;;;;;36.78;16.35;;;;;;;22.30;51.30;101187.66;7385997;19;20120;-60
2021/11/10 12:59:49;;;;;;;25.48;15.38;;;;;;;22.39;51.30;101187.00;7384350;19;20021;-60
2021/11/10 13:02:36;;;;;;;33.40;15.93;;;;;;;22.44;50.08;101187.50;7385682;19;20025;-60
2021/11/10 13:05:29;;;;;;;25.90;14.63;;;;;;;22.45;49.87;101182.03;7383590;19;20025;-60
2021/11/10 13:08:27;;;;;;;27.52;14.00;;;;;;;22.47;49.89;101188.13;7384250;19;20906;-60
2021/11/10 13:11:16;;;;;;;26.73;13.80;;;;;;;22.51;49.82;101186.09;7385737;19;20025;-60
2021/11/10 13:14:12;;;;;;;26.40;11.98;;;;;;;22.52;49.90;101182.47;7382397;19;20062;-60
2021/11/10 13:17:05;;;;;;;21.70;12.80;;;;;;;22.53;49.79;101184.16;7385348;19;20388;-61
2021/11/10 13:19:57;;;;;;;19.23;11.55;;;;;;;22.53;49.41;101170.81;7383688;19;20582;-61
2021/11/10 13:22:48;;;;;;;21.55;11.18;;;;;;;22.54;49.59;101175.19;7384906;19;20506;-60
2021/11/10 13:25:36;;;;;;;19.63;11.40;;;;;;;22.55;49.63;101168.88;7383951;19;20109;-60
2021/11/10 13:28:24;;;;;;;23.65;11.50;;;;;;;22.57;49.57;101177.63;7384250;19;20025;-60
2021/11/10 13:31:13;;;;;;;22.52;12.10;;;;;;;22.56;49.91;101175.06;7384567;19;20022;-60
2021/11/10 13:34:09;;;;;;;19.48;10.85;;;;;;;22.55;49.52;101165.34;7383884;19;20025;-69
2021/11/10 13:37:00;;;;;;;21.60;10.65;;;;;;;22.58;49.75;101163.28;7383096;19;20059;-68
2021/11/10 13:39:55;;;;;;;;;;;;;;;22.58;49.83;101171.31;7344813;19;20379;-68
2021/11/10 13:42:44;;;;;;;17.55;10.45;;;;;;;22.63;49.25;101165.63;7386948;19;19936;-68
2021/11/10 13:45:34;;;;;;;18.85;10.13;;;;;;;22.60;49.25;101164.03;7387427;19;20025;-59
2021/11/10 13:48:22;;;;;;;18.02;10.05;;;;;;;22.58;48.90;101160.63;7383431;19;20034;-58
2021/11/10 13:51:13;;;;;;;16.25;9.70;;;;;;;22.54;48.86;101152.94;7387211;19;20508;-59
2021/11/10 13:54:07;;;;;;;18.23;9.75;;;;;;;22.54;49.14;101152.94;7386337;19;20041;-58
2021/11/10 14:03:24;;;;;;;14.55;8.73;;;;;;;22.55;48.75;101155.50;7382012;19;20038;-59
2021/11/10 14:06:15;;;;;;;15.32;7.88;;;;;;;22.61;47.45;101152.38;7383123;19;20039;-61
2021/11/10 14:09:14;;;;;;;15.10;7.17;;;;;;;22.56;47.59;101146.53;7383783;19;20025;-59
2021/11/10 14:12:21;;;;;;;10.27;7.37;;;;;;;22.52;47.36;101142.38;7383014;19;20383;-58
2021/11/10 14:15:12;;;;;;;14.80;7.45;;;;;;;22.55;47.47;101149.31;7383482;19;20017;-59
2021/11/10 14:18:01;;;;;;;12.52;7.78;;;;;;;22.60;47.23;101148.00;7380848;19;20029;-57
2021/11/10 14:20:53;;;;;;;14.50;7.93;;;;;;;22.62;47.04;101158.56;7382304;19;20201;-58
2021/11/10 14:23:44;;;;;;;11.35;6.68;;;;;;;22.58;46.95;101160.63;7383060;19;20116;-58
2021/11/10 14:26:31;;;;;;;12.20;7.22;;;;;;;22.51;46.88;101162.06;7381909;19;20893;-56
2021/11/10 14:29:19;;;;;;;13.30;7.82;;;;;;;22.48;46.86;101159.59;7382413;19;20026;-57
2021/11/10 14:32:08;;;;;;;14.07;7.50;;;;;;;22.46;47.31;101153.50;7380820;19;20021;-59
2021/11/10 14:35:00;;;;;;;15.85;7.45;;;;;;;22.42;46.83;101146.69;7382784;19;20047;-61
2021/11/10 14:37:49;;;;;;;13.57;7.28;;;;;;;22.29;46.01;101151.25;7380512;19;20026;-61
2021/11/10 14:40:45;;;;;;;11.98;6.82;;;;;;;22.17;46.21;101148.47;7381523;19;20018;-62
2021/11/10 14:43:36;;;;;;;15.48;9.05;;;;;;;22.08;46.66;101141.16;7381766;19;20050;-62
2021/11/10 14:46:33;;;;;;;19.50;8.55;;;;;;;22.05;46.75;101141.34;7382188;19;20038;-61
2021/11/10 14:49:27;;;;;;;17.70;7.95;;;;;;;21.99;46.09;101152.44;7383134;19;20025;-63
2021/11/10 14:52:18;;;;;;;17.73;8.48;;;;;;;21.95;46.40;101144.78;7381858;19;20408;-60
2021/11/10 14:55:13;;;;;;;13.30;7.93;;;;;;;21.84;46.71;101141.03;7382233;19;20034;-61
2021/11/10 14:58:17;;;;;;;16.35;8.65;;;;;;;21.78;46.53;101143.28;7380506;19;20021;-63
2021/11/10 15:01:12;;;;;;;18.88;9.07;;;;;;;21.73;47.04;101137.44;7380640;19;20593;-63
2021/11/10 15:04:04;;;;;;;18.08;8.85;;;;;;;21.69;47.21;101135.97;7380563;19;20022;-62
2021/11/10 15:07:07;;;;;;;23.75;10.55;;;;;;;21.66;47.27;101141.50;7380652;19;20487;-62
2021/11/10 15:09:55;;;;;;;18.13;10.35;;;;;;;21.67;46.82;101132.56;7381592;19;20041;-63
2021/11/10 15:12:42;;;;;;;16.60;10.40;;;;;;;21.64;46.45;101132.75;7379968;19;20029;-62
2021/11/10 15:15:39;;;;;;;17.75;10.15;;;;;;;21.61;46.29;101125.81;7381261;19;20033;-62
2021/11/10 15:18:28;;;;;;;15.43;9.45;;;;;;;21.60;46.32;101124.94;7379813;19;20029;-63
2021/11/10 15:21:18;;;;;;;16.23;9.52;;;;;;;21.59;46.49;101133.91;7379751;19;20048;-63
2021/11/10 15:24:10;;;;;;;17.77;9.80;;;;;;;21.60;46.41;101132.97;7380568;19;20053;-62
2021/11/10 15:26:58;;;;;;;16.52;11.38;;;;;;;21.58;46.37;101128.69;7380057;19;20024;-61
2021/11/10 15:29:47;;;;;;;18.35;9.50;;;;;;;21.58;46.35;101116.22;7381192;19;20029;-63
2021/11/10 15:32:37;;;;;;;18.20;10.25;;;;;;;21.69;46.59;101117.28;7379850;19;20108;-61
2021/11/10 15:35:26;;;;;;;18.85;10.13;;;;;;;21.83;46.23;101112.63;7378973;19;20037;-63
2021/11/10 15:38:16;;;;;;;20.75;10.07;;;;;;;21.95;46.75;101112.72;7383299;19;20025;-64
2021/11/10 15:41:07;;;;;;;14.90;8.85;;;;;;;22.01;46.81;101106.94;7387369;19;20029;-62
2021/11/10 15:43:54;;;;;;;15.05;10.00;;;;;;;22.04;46.76;101107.59;7388781;19;20033;-62
2021/11/10 15:46:42;;;;;;;17.15;9.75;;;;;;;22.09;46.67;101104.63;7387703;19;20039;-63
2021/11/10 15:49:32;;;;;;;17.05;9.15;;;;;;;22.14;46.76;101107.81;7388441;19;20025;-62
2021/11/10 15:52:19;;;;;;;19.13;9.38;;;;;;;22.16;46.86;101106.72;7385858;19;20039;-63
2021/11/10 15:55:10;;;;;;;17.73;9.00;;;;;;;22.19;46.56;101106.50;7388199;19;20052;-64
2021/11/10 15:57:58;;;;;;;17.30;9.20;;;;;;;22.20;46.90;101105.53;7384962;19;20446;-63
2021/11/10 16:00:46;;;;;;;17.65;9.82;;;;;;;22.23;47.25;101100.91;7386358;19;20046;-64
2021/11/10 16:03:38;;;;;;;19.15;9.02;;;;;;;22.25;47.03;101107.84;7386829;19;20990;-63
2021/11/10 16:06:28;;;;;;;18.17;10.20;;;;;;;22.28;46.73;101110.31;7386756;19;20029;-63
2021/11/10 16:09:15;;;;;;;13.83;9.50;;;;;;;22.30;46.72;101115.56;7387023;19;20033;-62
2021/11/10 16:12:03;;;;;;;21.40;11.13;;;;;;;22.31;46.35;101104.75;7385305;19;20039;-63
2021/11/10 16:14:50;;;;;;;18.92;11.75;;;;;;;22.16;45.57;101111.22;7386175;19;20025;-62
2021/11/10 16:17:39;;;;;;;18.77;10.60;;;;;;;21.96;45.36;101104.63;7384438;19;20029;-61
2021/11/10 16:20:26;;;;;;;21.50;11.80;;;;;;;21.83;45.65;101109.13;7386181;19;20493;-61
2021/11/10 16:23:17;;;;;;;21.27;12.88;;;;;;;21.69;45.08;101109.28;7387527;19;20372;-57
2021/11/10 16:26:05;;;;;;;23.10;11.52;;;;;;;21.54;45.96;101109.38;7385918;19;20025;-59
2021/11/10 16:28:56;;;;;;;17.73;11.07;;;;;;;21.45;46.62;101110.06;7385816;19;20017;-60